KSTJ/STJ METAR and TAF weather

Enter ICAO airport designator
Station Type Date Time Source
KSTJ METAR 2019/08/24 21:53 UTC NOAA

KSTJ 242153Z 12012KT 10SM FEW035 OVC049 24/16 A3005 RMK AO2 SLP169 T02390161


Station Type Date Time Source
KSTJ Decoded METAR 2019/08/24 21:53 UTC NOAA

Station name not available
Aug 24, 2019 - 05:53 PM EDT / 2019.08.24 2153 UTC
Wind: from the ESE (120 degrees) at 14 MPH (12 KT):0
Visibility: 10 mile(s):0
Sky conditions: overcast
Temperature: 75.0 F (23.9 C)
Dew Point: 61.0 F (16.1 C)
Relative Humidity: 61%
Pressure (altimeter): 30.05 in. Hg (1017 hPa)
ob: KSTJ 242153Z 12012KT 10SM FEW035 OVC049 24/16 A3005 RMK AO2 SLP169 T02390161
cycle: 22

Station Type Date Time Source
KSTJ TAF 2019/08/24 18:22 UTC NOAA

TAF KSTJ 241720Z 2418/2518 12012G20KT P6SM SCT015 BKN050
FM250000 12012KT P6SM SCT015 BKN050
FM250600 12011KT 5SM -DZ OVC015
FM251600 12012KT P6SM OVC020

Example: see airport list